createdAt,value
2017-03-05T00:04:00.954Z,8.10
2017-03-05T00:08:58.022Z,8.27
2017-03-05T00:13:54.673Z,8.26
2017-03-05T00:18:51.293Z,8.28
2017-03-05T00:23:47.790Z,8.28
2017-03-05T00:28:44.395Z,8.28
2017-03-05T00:33:40.958Z,8.24
2017-03-05T00:38:37.403Z,8.30
2017-03-05T00:43:33.883Z,8.26
2017-03-05T00:48:30.283Z,8.31
2017-03-05T00:53:26.713Z,8.33
2017-03-05T00:58:23.439Z,8.30
2017-03-05T01:03:19.957Z,8.23
2017-03-05T01:08:17.026Z,8.31
2017-03-05T01:13:13.649Z,8.27
2017-03-05T01:18:10.236Z,8.27
2017-03-05T01:23:06.653Z,8.23
2017-03-05T01:28:03.142Z,8.06
2017-03-05T01:33:00.809Z,7.80
2017-03-05T01:37:57.379Z,7.76
2017-03-05T01:42:53.738Z,7.83
2017-03-05T01:47:50.567Z,7.70
2017-03-05T01:52:47.425Z,7.63
2017-03-05T01:57:44.357Z,7.60
2017-03-05T02:07:46.062Z,7.54
2017-03-05T02:12:42.636Z,7.50
2017-03-05T02:17:39.195Z,7.53
2017-03-05T02:22:36.822Z,7.45
2017-03-05T02:27:33.677Z,7.50
2017-03-05T02:32:31.003Z,7.50
2017-03-05T02:37:28.152Z,7.43
2017-03-05T02:42:25.043Z,7.56
2017-03-05T02:47:22.191Z,7.40
2017-03-05T02:52:18.948Z,7.38
2017-03-05T02:57:16.526Z,7.40
2017-03-05T03:02:13.177Z,7.42
2017-03-05T03:07:10.035Z,7.45
2017-03-05T03:12:06.851Z,7.51
2017-03-05T03:17:03.550Z,7.50
2017-03-05T03:22:00.306Z,7.50
2017-03-05T03:26:57.456Z,7.56
2017-03-05T03:31:54.085Z,7.58
2017-03-05T03:36:50.593Z,7.63
2017-03-05T03:41:47.639Z,7.76
2017-03-05T03:46:44.445Z,7.82
2017-03-05T03:51:41.049Z,7.90
2017-03-05T03:56:37.922Z,8.01
2017-03-05T04:01:34.508Z,7.97
2017-03-05T04:06:31.318Z,7.94
2017-03-05T04:11:28.382Z,7.98
2017-03-05T04:16:24.848Z,8.00
2017-03-05T04:21:21.347Z,7.97
2017-03-05T04:26:18.445Z,7.93
2017-03-05T04:31:14.841Z,7.98
2017-03-05T04:36:11.565Z,8.00
2017-03-05T04:41:07.818Z,7.90
2017-03-05T04:46:04.942Z,7.95
2017-03-05T04:51:01.460Z,7.94
2017-03-05T04:55:59.114Z,7.93
2017-03-05T05:00:55.724Z,7.93
2017-03-05T05:05:52.394Z,7.87
2017-03-05T05:10:49.244Z,7.94
2017-03-05T05:15:46.840Z,7.93
2017-03-05T05:20:43.668Z,7.97
2017-03-05T05:25:39.963Z,7.93
2017-03-05T05:30:37.011Z,7.95
2017-03-05T05:35:33.648Z,7.94
2017-03-05T05:40:30.185Z,8.00
2017-03-05T05:45:26.839Z,7.90
2017-03-05T05:50:23.409Z,7.85
2017-03-05T05:55:20.022Z,7.87
2017-03-05T06:00:17.216Z,7.87
2017-03-05T06:05:14.185Z,7.83
2017-03-05T06:10:10.841Z,7.87
2017-03-05T06:15:08.393Z,7.85
2017-03-05T06:20:04.850Z,7.85
2017-03-05T06:25:01.440Z,7.98
2017-03-05T06:29:58.560Z,7.94
2017-03-05T06:34:55.218Z,8.09
2017-03-05T06:39:51.946Z,8.08
2017-03-05T06:44:49.492Z,8.01
2017-03-05T06:49:46.586Z,8.13
2017-03-05T06:54:44.249Z,8.09
2017-03-05T06:59:41.644Z,8.16
2017-03-05T07:04:38.098Z,8.19
2017-03-05T07:09:34.827Z,8.18
2017-03-05T07:14:31.657Z,8.24
2017-03-05T07:19:28.806Z,8.33
2017-03-05T07:24:25.707Z,8.31
2017-03-05T07:29:23.063Z,8.45
2017-03-05T07:34:20.509Z,8.55
2017-03-05T07:39:17.645Z,8.60
2017-03-05T07:44:14.928Z,8.71
2017-03-05T07:49:12.212Z,8.88
2017-03-05T07:54:08.861Z,8.88
2017-03-05T07:59:06.032Z,8.85
2017-03-05T08:04:02.583Z,8.99
2017-03-05T08:08:59.584Z,9.44
2017-03-05T08:13:56.562Z,9.18
2017-03-05T08:18:54.171Z,9.26
2017-03-05T08:23:50.477Z,9.14
2017-03-05T08:28:47.389Z,9.18
2017-03-05T08:33:44.690Z,9.21
2017-03-05T08:38:41.621Z,9.25
2017-03-05T08:43:38.177Z,9.10
2017-03-05T08:48:35.218Z,8.91
2017-03-05T08:53:31.725Z,8.94
2017-03-05T08:58:28.322Z,9.08
2017-03-05T09:03:25.861Z,9.18
2017-03-05T09:08:23.501Z,9.06
2017-03-05T09:13:20.157Z,9.37
2017-03-05T09:18:17.640Z,9.56
2017-03-05T09:23:17.244Z,9.51
2017-03-05T09:28:15.734Z,9.79
2017-03-05T09:33:12.470Z,10.30
2017-03-05T09:38:09.747Z,10.61
2017-03-05T09:43:06.563Z,10.68
2017-03-05T09:48:03.565Z,10.78
2017-03-05T09:53:00.957Z,11.32
2017-03-05T09:57:58.679Z,11.77
2017-03-05T10:02:56.089Z,11.80
2017-03-05T10:07:54.192Z,11.86
2017-03-05T10:12:53.584Z,10.59
2017-03-05T10:17:49.751Z,10.22
2017-03-05T10:22:49.239Z,10.74
2017-03-05T10:27:45.872Z,11.05
2017-03-05T10:32:42.929Z,11.47
2017-03-05T10:37:41.383Z,11.97
2017-03-05T10:42:39.573Z,11.88
2017-03-05T10:47:35.819Z,12.17
2017-03-05T10:52:32.882Z,11.68
2017-03-05T10:57:30.355Z,11.23
2017-03-05T11:02:26.808Z,11.86
2017-03-05T11:07:24.293Z,12.80
2017-03-05T11:12:22.572Z,13.93
2017-03-05T11:17:19.632Z,13.23
2017-03-05T11:22:15.672Z,12.64
2017-03-05T11:27:12.355Z,11.83
2017-03-05T11:32:09.923Z,13.16
2017-03-05T11:37:07.583Z,14.03
2017-03-05T11:42:03.977Z,12.78
2017-03-05T11:47:00.868Z,11.91
2017-03-05T11:51:57.642Z,12.49
2017-03-05T11:56:55.057Z,12.61
2017-03-05T12:01:51.589Z,12.17
2017-03-05T12:06:48.955Z,12.87
2017-03-05T12:11:45.120Z,12.21
2017-03-05T12:16:42.326Z,12.06
2017-03-05T12:21:38.712Z,12.12
2017-03-05T12:26:36.954Z,12.20
2017-03-05T12:31:33.798Z,12.09
2017-03-05T12:36:32.118Z,12.80
2017-03-05T12:41:29.816Z,13.30
2017-03-05T12:46:25.977Z,12.40
2017-03-05T12:51:24.004Z,12.06
2017-03-05T12:56:20.339Z,12.04
2017-03-05T13:01:17.629Z,12.12
2017-03-05T13:06:13.922Z,11.95
2017-03-05T13:11:10.600Z,11.84
2017-03-05T13:16:08.498Z,11.63
2017-03-05T13:21:05.258Z,12.65
2017-03-05T13:26:02.549Z,13.03
2017-03-05T13:30:59.461Z,12.47
2017-03-05T13:35:55.859Z,12.24
2017-03-05T13:40:53.757Z,12.86
2017-03-05T13:45:54.915Z,12.87
2017-03-05T13:50:50.187Z,12.72
2017-03-05T13:55:46.668Z,13.08
2017-03-05T14:00:46.472Z,13.05
2017-03-05T14:05:42.862Z,12.65
2017-03-05T14:10:39.397Z,12.54
2017-03-05T14:15:36.089Z,12.90
2017-03-05T14:20:33.337Z,12.83
2017-03-05T14:25:30.068Z,12.60
2017-03-05T14:30:26.931Z,12.42
2017-03-05T14:35:23.487Z,12.57
2017-03-05T14:40:21.159Z,12.54
2017-03-05T14:45:19.033Z,13.30
2017-03-05T14:50:16.667Z,13.37
2017-03-05T14:55:13.919Z,13.68
2017-03-05T15:00:10.834Z,13.09
2017-03-05T15:05:07.339Z,12.25
2017-03-05T15:10:03.582Z,11.87
2017-03-05T15:15:01.210Z,11.45
2017-03-05T15:19:57.888Z,11.57
2017-03-05T15:24:54.654Z,11.48
2017-03-05T15:29:50.719Z,11.30
2017-03-05T15:34:48.626Z,11.32
2017-03-05T15:39:45.024Z,11.02
2017-03-05T15:44:42.313Z,10.87
2017-03-05T15:49:39.253Z,10.87
2017-03-05T15:54:35.869Z,10.79
2017-03-05T15:59:32.367Z,10.61
2017-03-05T16:04:29.281Z,10.60
2017-03-05T16:09:25.974Z,10.44
2017-03-05T16:14:22.752Z,10.30
2017-03-05T16:19:22.268Z,10.07
2017-03-05T16:24:18.394Z,9.98
2017-03-05T16:29:16.173Z,9.80
2017-03-05T16:34:13.238Z,9.69
2017-03-05T16:39:09.801Z,9.48
2017-03-05T16:44:07.471Z,8.63
2017-03-05T16:49:04.735Z,8.38
2017-03-05T16:54:01.234Z,8.31
2017-03-05T16:58:58.074Z,8.55
2017-03-05T17:03:54.213Z,8.46
2017-03-05T17:08:52.044Z,8.51
2017-03-05T17:13:48.871Z,8.66
2017-03-05T17:18:45.183Z,8.60
2017-03-05T17:23:41.772Z,8.51
2017-03-05T17:28:38.371Z,8.44
2017-03-05T17:33:35.097Z,8.49
2017-03-05T17:38:31.664Z,8.41
2017-03-05T17:43:29.273Z,8.36
2017-03-05T17:48:25.715Z,8.49
2017-03-05T17:53:22.307Z,8.46
2017-03-05T17:58:20.032Z,8.42
2017-03-05T18:03:16.822Z,8.48
2017-03-05T18:08:13.318Z,8.38
2017-03-05T18:13:09.887Z,8.37
2017-03-05T18:18:06.854Z,8.18
2017-03-05T18:23:03.527Z,8.08
2017-03-05T18:28:00.145Z,7.85
2017-03-05T18:32:56.505Z,7.47
2017-03-05T18:37:53.048Z,7.03
2017-03-05T18:42:49.528Z,7.02
2017-03-05T18:47:45.531Z,7.05
2017-03-05T18:52:41.907Z,6.89
2017-03-05T18:57:38.255Z,6.70
2017-03-05T19:02:34.702Z,6.72
2017-03-05T19:07:31.102Z,6.67
2017-03-05T19:12:27.135Z,6.59
2017-03-05T19:17:23.595Z,6.62
2017-03-05T19:22:20.636Z,6.63
2017-03-05T19:27:16.925Z,6.70
2017-03-05T19:32:14.196Z,6.78
2017-03-05T19:37:10.575Z,6.78
2017-03-05T19:42:07.704Z,6.81
2017-03-05T19:47:06.725Z,6.84
2017-03-05T19:52:03.001Z,6.78
2017-03-05T19:57:00.406Z,6.79
2017-03-05T20:01:56.923Z,6.87
2017-03-05T20:06:53.784Z,6.93
2017-03-05T20:11:49.720Z,6.96
2017-03-05T20:16:46.144Z,6.99
2017-03-05T20:21:44.849Z,6.93
2017-03-05T20:26:41.374Z,7.00
2017-03-05T20:31:38.952Z,7.13
2017-03-05T20:36:35.102Z,7.17
2017-03-05T20:41:34.262Z,7.02
2017-03-05T20:46:30.775Z,6.88
2017-03-05T20:51:27.954Z,6.85
2017-03-05T20:56:25.646Z,7.00
2017-03-05T21:01:22.137Z,7.03
2017-03-05T21:06:19.140Z,7.10
2017-03-05T21:11:15.481Z,7.10
2017-03-05T21:16:13.193Z,7.13
2017-03-05T21:21:09.478Z,7.13
2017-03-05T21:26:06.737Z,7.07
2017-03-05T21:31:03.431Z,7.13
2017-03-05T21:36:00.738Z,7.20
2017-03-05T21:40:57.253Z,7.10
2017-03-05T21:45:53.773Z,7.07
2017-03-05T21:50:50.115Z,7.00
2017-03-05T21:55:47.007Z,6.92
2017-03-05T22:00:43.507Z,7.02
2017-03-05T22:05:41.060Z,6.92
2017-03-05T22:10:36.892Z,6.96
2017-03-05T22:15:33.757Z,6.97
2017-03-05T22:20:30.178Z,6.77
2017-03-05T22:25:26.915Z,6.79
2017-03-05T22:30:24.021Z,6.75
2017-03-05T22:35:20.547Z,6.77
2017-03-05T22:40:17.359Z,6.72
2017-03-05T22:45:14.034Z,6.82
2017-03-05T22:50:10.911Z,6.85
2017-03-05T22:55:07.944Z,6.74
2017-03-05T23:00:04.348Z,6.85
2017-03-05T23:05:00.984Z,6.88
2017-03-05T23:09:58.064Z,6.87
2017-03-05T23:14:55.977Z,6.75
2017-03-05T23:19:52.756Z,6.79
2017-03-05T23:24:49.241Z,6.79
2017-03-05T23:29:46.261Z,6.85
2017-03-05T23:34:44.434Z,6.70
2017-03-05T23:39:41.377Z,6.70
2017-03-05T23:44:38.435Z,6.79
2017-03-05T23:49:35.623Z,6.69
2017-03-05T23:54:32.652Z,6.59
2017-03-05T23:59:29.135Z,6.66
